Buoy 21539

sailwx.info

Track history (hours):
 
Tides and Currents Weather Stations Pressure Air Temp Water Temp Dewpoint Dewpoint Depression Visibility Wind Speed Wind Dir Waves Ship Positions

Drifting buoy 21539

Last reported at 2016-Aug-27 13:10 UTC. Time now 2016-Aug-27 15:13 UTC.
Position N 44°33' W 135°21'.

Barometer 1021.5 mb
Water temperature 17.5 ° C

Date/timePositionNaut miles runAvg speedWind from/ knotsBaromVisibWave heightAir tempDewpointWater temp
2016-Aug-27 13:10N 44°33' W 135°21'1 1.0 1021.5 17.5
2016-Aug-27 12:10N 44°34' W 135°20'2 2.2 1021.7 17.5
2016-Aug-27 11:10N 44°36' W 135°20'0 0.0 1022.0 17.5
2016-Aug-27 10:10N 44°36' W 135°20'2 0.4 1022.2 17.5
2016-Aug-27 06:10N 44°37' W 135°18'1 1.1 1022.7 17.5
2016-Aug-27 05:10N 44°36' W 135°19'1 1.4 1022.8 17.6
2016-Aug-27 04:10N 44°37' W 135°17'0 0.0 1022.5 17.6
2016-Aug-27 03:10N 44°37' W 135°17'0 0.4 1022.4 17.6
2016-Aug-27 02:10N 44°37' W 135°17'1 1.4 1022.6 17.5
2016-Aug-27 01:10N 44°38' W 135°16'2 1.8 1022.9 17.5
2016-Aug-27 00:10N 44°40' W 135°15'0 0.0 1023.2 17.4
2016-Aug-26 22:10N 44°40' W 135°15'0 0.3 1024.0 17.4
2016-Aug-26 21:10N 44°40' W 135°15'3 1.0 1024.1 17.3
2016-Aug-26 18:10N 44°42' W 135°13'2 2.1 1024.6 17.3
2016-Aug-26 17:10N 44°43' W 135°10'2 1.6 1024.2 17.3
2016-Aug-26 16:10N 44°45' W 135°11'0 0.1 1024.2 17.3
2016-Aug-26 15:10N 44°45' W 135°11'1 1.0 1024.3 17.3
2016-Aug-26 14:10N 44°46' W 135°10'1 1.0 1024.1 17.3
2016-Aug-26 13:10N 44°47' W 135°10'1 0.7 1024.5 17.3
2016-Aug-26 12:10N 44°47' W 135°11'4 3.5 1025.0 17.3
2016-Aug-26 11:10N 44°49' W 135°07'1 0.2 1025.3 17.3
2016-Aug-26 06:10N 44°50' W 135°05'1 1.0 1027.5 17.5
2016-Aug-26 05:10N 44°51' W 135°05'1 0.6 1027.6 17.5
2016-Aug-26 04:10N 44°51' W 135°05'2 1.9 1027.6 17.5
2016-Aug-26 03:10N 44°53' W 135°05'1 1.3 1027.9 17.5
2016-Aug-26 02:10N 44°54' W 135°05'0 0.2 1028.1 17.5
2016-Aug-26 01:10N 44°54' W 135°05'3 3.3 1028.3 17.5
2016-Aug-26 00:10N 44°57' W 135°02'0 0.0 1028.8 17.5
2016-Aug-25 22:10N 44°57' W 135°02'0 0.0 1030.0 17.5
2016-Aug-25 21:10N 44°57' W 135°02'1 0.8 1030.4 17.5
2016-Aug-25 20:10N 44°58' W 135°02'1 0.6 1030.8 17.5
2016-Aug-25 18:10N 44°59' W 135°01'0 0.4 1031.0 17.5
2016-Aug-25 17:10N 44°59' W 135°01'1 0.6 1031.1 17.5
2016-Aug-25 15:10N 44°60' W 135°00'0 0.2 1031.4 17.5
2016-Aug-25 14:10N 45°00' W 135°00'2 1.6 1031.2 17.5
2016-Aug-25 13:10N 45°02' W 134°60'0 0.0 1031.3 17.5
2016-Aug-25 12:10N 45°02' W 134°60'3 2.8 1031.3 17.6
2016-Aug-25 11:10N 45°04' W 134°58'0 0.0 1031.8 17.6
2016-Aug-25 07:10N 45°04' W 134°58'1 1.1 1032.4 17.7
2016-Aug-25 06:10N 45°05' W 134°58'1 0.5 1032.6 17.7
2016-Aug-25 05:10N 45°06' W 134°58'0 0.4 1032.6 17.7
2016-Aug-25 04:10N 45°06' W 134°58'0 0.2 1032.3 17.8
2016-Aug-25 03:10N 45°06' W 134°58'1 0.4 1032.4 17.8
2016-Aug-25 01:10N 45°06' W 134°57'1 0.6 1032.5 17.8
2016-Aug-25 00:10N 45°06' W 134°56'0 0.1 1032.8 17.8
2016-Aug-24 23:10N 45°06' W 134°56'3 1.4 1033.2 17.8
2016-Aug-24 21:10N 45°08' W 134°53'0 0.0 1033.4 17.8
2016-Aug-24 20:10N 45°08' W 134°53'2 2.2 1033.6 17.7
2016-Aug-24 19:10N 45°10' W 134°54'0 0.0 1033.7 17.7
2016-Aug-24 18:10N 45°10' W 134°54'0 0.5 1033.6 17.7
2016-Aug-24 17:10N 45°10' W 134°53'0 0.0 1033.3 17.7
2016-Aug-24 16:10N 45°10' W 134°54'0 0.4 1033.0 17.6
2016-Aug-24 15:10N 45°10' W 134°54'1 0.8 1032.7 17.6
2016-Aug-24 14:10N 45°10' W 134°53'0 0.4 1032.3 17.6
2016-Aug-24 13:10N 45°10' W 134°52'3 1.3 1032.0 17.6
2016-Aug-24 11:10N 45°13' W 134°51'0 0.0 1031.8 17.6
2016-Aug-24 09:10N 45°13' W 134°51'0 0.0 1032.1 17.7
2016-Aug-24 07:10N 45°13' W 134°51'0 0.2 1031.9 17.9
2016-Aug-24 05:10N 45°13' W 134°52'0 0.2 1031.4 18.0
2016-Aug-24 04:10N 45°13' W 134°52'0 0.2 1030.8 18.0
2016-Aug-24 03:10N 45°13' W 134°52'0 0.2 1030.5 18.0
2016-Aug-24 02:10N 45°13' W 134°52'1 0.6 1030.2 18.1
2016-Aug-24 01:10N 45°12' W 134°51'1 1.4 1030.0 18.1
2016-Aug-24 00:10N 45°13' W 134°49'0 0.0 1030.0 18.1
2016-Aug-23 23:10N 45°13' W 134°49'2 1.2 1030.0 18.0
2016-Aug-23 21:10N 45°14' W 134°47'0 0.0 1029.9 17.9
2016-Aug-23 19:10N 45°14' W 134°47'1 0.8 1029.7 17.7
2016-Aug-23 18:10N 45°15' W 134°47'0 0.4 1029.4 17.6
2016-Aug-23 17:10N 45°15' W 134°48'1 0.8 1029.0 17.5
2016-Aug-23 16:10N 45°15' W 134°48'0 0.4 1028.6 17.5
2016-Aug-23 15:10N 45°15' W 134°48'0 0.3 1028.1 17.5
2016-Aug-23 14:10N 45°15' W 134°48'0 0.4 1027.5 17.5
2016-Aug-23 13:10N 45°15' W 134°48'0 0.3 1026.9 17.5
2016-Aug-23 12:10N 45°15' W 134°47'1 0.5 1026.5 17.5
2016-Aug-23 11:10N 45°16' W 134°47'0 0.0 1026.5 17.5
2016-Aug-23 10:10N 45°16' W 134°47'0 0.2 1026.4 17.5
2016-Aug-23 07:10N 45°16' W 134°47'1 0.6 1026.4 17.5
2016-Aug-23 06:10N 45°16' W 134°47'0 0.0 1026.2 17.5
2016-Aug-23 05:10N 45°16' W 134°47'0 0.5 1025.8 17.5
2016-Aug-23 04:10N 45°16' W 134°47'1 0.5 1025.2 17.6
2016-Aug-23 03:10N 45°16' W 134°47'0 0.4 1024.8 17.6
2016-Aug-23 02:10N 45°16' W 134°47'1 0.4 1024.8 17.6
2016-Aug-23 00:10N 45°16' W 134°46'1 0.8 1024.7 17.5
2016-Aug-22 23:10N 45°16' W 134°45'0 0.1 1024.7 17.4
2016-Aug-22 21:10N 45°16' W 134°45'0 0.2 1024.7 17.3
2016-Aug-22 20:10N 45°16' W 134°45'0 0.5 1024.6 17.2
2016-Aug-22 19:10N 45°16' W 134°44'0 0.5 1024.2 17.2
2016-Aug-22 18:10N 45°16' W 134°45'0 0.0 1024.1 17.2
2016-Aug-22 17:10N 45°16' W 134°45'0 0.3 1023.7 17.2
2016-Aug-22 16:10N 45°15' W 134°44'0 0.3 1023.3 17.2
2016-Aug-22 15:10N 45°15' W 134°44'0 0.3 1023.0 17.2
2016-Aug-22 14:10N 45°15' W 134°44'1 1.0 1022.4 17.2
2016-Aug-22 13:10N 45°15' W 134°42'0 0.2 1022.0 17.2
2016-Aug-22 12:10N 45°15' W 134°43'1 1.3 1021.9 17.3
2016-Aug-22 11:10N 45°15' W 134°41'0 0.4 1021.8 17.3
2016-Aug-22 10:10N 45°16' W 134°40'0 0.0 1021.9 17.4
2016-Aug-22 06:10N 45°16' W 134°41'0 0.4 1021.5 17.5
2016-Aug-22 05:10N 45°16' W 134°40'0 0.2 1021.2 17.5
2016-Aug-22 04:10N 45°15' W 134°40'0 0.1 1020.9 17.6
2016-Aug-22 02:10N 45°15' W 134°40'0 0.3 1020.6 17.7
2016-Aug-22 01:10N 45°15' W 134°41'0 0.2 1020.6 17.6
2016-Aug-22 00:10N 45°15' W 134°41'0 0.4 1020.8 17.8
2016-Aug-21 23:10N 45°16' W 134°41'1 1.1 1021.2 17.8
2016-Aug-21 22:10N 45°17' W 134°40'0 0.0 1021.5 18.0
2016-Aug-21 21:10N 45°17' W 134°40'0 0.0 1021.6 17.6
2016-Aug-21 20:10N 45°17' W 134°40'1 0.7 1021.8 17.3
2016-Aug-21 18:10N 45°18' W 134°40'0 0.0 1021.8 17.2
2016-Aug-21 17:10N 45°18' W 134°40'1 0.8 1021.5 17.2
2016-Aug-21 16:10N 45°18' W 134°41'0 0.2 1021.3 17.2
2016-Aug-21 15:10N 45°18' W 134°41'0 0.4 1021.2 17.2
2016-Aug-21 14:10N 45°19' W 134°41'0 0.5 1021.0 17.2
2016-Aug-21 13:10N 45°19' W 134°41'1 1.0 1021.0 17.2
2016-Aug-21 12:10N 45°20' W 134°42'1 0.4 1021.2 17.2
2016-Aug-21 10:10N 45°20' W 134°42'0 0.1 1021.3 17.2
2016-Aug-21 06:10N 45°21' W 134°42'0 0.3 1022.3 17.2
2016-Aug-21 05:10N 45°21' W 134°42'1 1.0 1022.3 17.2
2016-Aug-21 04:10N 45°22' W 134°41'0 0.4 1022.3 17.2
2016-Aug-21 03:10N 45°22' W 134°41'0 0.1 1022.3 17.2
2016-Aug-21 02:10N 45°22' W 134°41'1 1.1 1022.4 17.2
2016-Aug-21 01:10N 45°23' W 134°40'1 0.8 1022.7 17.2
2016-Aug-21 00:10N 45°24' W 134°41'1 1.2 1023.0 17.2
2016-Aug-20 23:10N 45°25' W 134°41'0 0.0 1023.4 17.2
2016-Aug-20 22:10N 45°25' W 134°41'2 0.4 1023.8 17.2
2016-Aug-20 18:10N 45°27' W 134°42'1 0.7 1025.2 17.0
2016-Aug-20 17:10N 45°26' W 134°41'0 0.1 1025.2 16.9
2016-Aug-20 16:10N 45°27' W 134°41'1 0.6 1025.1 16.9
2016-Aug-20 15:10N 45°27' W 134°41'0 0.3 1024.9 16.9
2016-Aug-20 14:10N 45°27' W 134°41'1 1.0 1024.6 16.9
2016-Aug-20 13:10N 45°28' W 134°41'1 1.1 1024.5 16.9
2016-Aug-20 12:10N 45°29' W 134°41'0 0.0 1024.6 16.9
2016-Aug-20 10:10N 45°29' W 134°41'1 0.5 1025.3 16.9
2016-Aug-20 07:10N 45°30' W 134°39'1 1.2 1026.2 16.9
2016-Aug-20 06:10N 45°31' W 134°38'1 0.8 1026.5 16.8
2016-Aug-20 05:10N 45°31' W 134°39'0 0.3 1026.4 16.8
2016-Aug-20 04:10N 45°32' W 134°39'1 0.7 1025.9 16.8
2016-Aug-20 02:10N 45°33' W 134°40'0 0.3 1026.2 16.9
2016-Aug-20 01:10N 45°33' W 134°40'1 0.8 1026.7 16.9
2016-Aug-20 00:10N 45°34' W 134°39'1 0.8 1027.0 16.8
2016-Aug-19 23:10N 45°35' W 134°39'0 0.1 1027.4 16.8
2016-Aug-19 22:10N 45°35' W 134°39'1 0.3 1027.6 16.8
2016-Aug-19 20:10N 45°34' W 134°39'2 1.6 1027.8 16.8
2016-Aug-19 19:10N 45°36' W 134°38'2 0.6 1028.0 16.8
2016-Aug-19 16:10N 45°38' W 134°37'0 0.2 1028.3 16.8
2016-Aug-19 15:10N 45°38' W 134°37'1 0.9 1028.2 16.8
2016-Aug-19 14:10N 45°38' W 134°38'1 0.6 1028.0 16.8
2016-Aug-19 13:10N 45°39' W 134°37'1 1.0 1028.0 16.8
2016-Aug-19 12:10N 45°40' W 134°38'2 1.0 1028.2 16.8
2016-Aug-19 10:10N 45°41' W 134°37'0 0.1 1028.5 16.8
2016-Aug-19 07:10N 45°41' W 134°37'1 0.6 1029.4 16.9
2016-Aug-19 06:10N 45°41' W 134°36'0 0.1 1029.5 16.9
2016-Aug-19 05:10N 45°41' W 134°36'1 1.3 1029.5 16.9
2016-Aug-19 04:10N 45°42' W 134°35'0 0.0 1029.3 16.9
2016-Aug-19 03:10N 45°42' W 134°35'1 1.2 1029.4 17.0
2016-Aug-19 02:10N 45°44' W 134°34'0 0.1 1029.6 16.9
2016-Aug-19 01:10N 45°44' W 134°34'2 1.8 1029.8 16.9
2016-Aug-19 00:10N 45°45' W 134°33'0 0.0 1029.9 16.9
2016-Aug-18 23:10N 45°45' W 134°33'0 0.0 1030.3 17.0
2016-Aug-18 22:10N 45°45' W 134°33'1 1.1 1030.6 17.0
2016-Aug-18 21:10N 45°46' W 134°34'0 0.4 1031.0 17.0
2016-Aug-18 20:10N 45°46' W 134°33'0 0.0 1031.0 16.9
2016-Aug-18 19:10N 45°46' W 134°33'1 1.1 1031.1 16.9
2016-Aug-18 18:10N 45°48' W 134°34'0 0.2 1031.2 16.9
2016-Aug-18 17:10N 45°48' W 134°34'1 0.5 1031.4 16.9
2016-Aug-18 16:10N 45°47' W 134°33'0 0.4 1031.1 16.9
2016-Aug-18 15:10N 45°48' W 134°34'1 1.4 1031.1 16.9
2016-Aug-18 14:10N 45°49' W 134°33'1 0.7 1030.8 16.9
2016-Aug-18 13:10N 45°48' W 134°33'1 0.7 1030.7 17.0
2016-Aug-18 12:10N 45°49' W 134°33'2 2.2 1030.9 17.0
2016-Aug-18 11:10N 45°51' W 134°31'2 1.9 1031.0 17.0
2016-Aug-18 10:10N 45°49' W 134°31'2 1.0 1031.0 17.1
2016-Aug-18 08:10N 45°51' W 134°31'1 0.3 1031.3 17.2
2016-Aug-18 06:10N 45°51' W 134°32'1 0.8 1031.7 17.2
2016-Aug-18 05:10N 45°52' W 134°30'0 0.5 1031.8 17.2
2016-Aug-18 04:10N 45°52' W 134°30'1 0.9 1031.4 17.2
2016-Aug-18 03:10N 45°53' W 134°31'0 0.5 1031.2 17.3
2016-Aug-18 02:10N 45°53' W 134°31'0 0.3 1031.3 17.2
2016-Aug-18 01:10N 45°53' W 134°31'0 0.2 1031.2 17.3
2016-Aug-17 22:10N 45°53' W 134°32'2 1.7 1031.6 17.2
2016-Aug-17 21:10N 45°53' W 134°29'0 0.0 1031.3 17.2
2016-Aug-17 20:10N 45°53' W 134°29'0 0.0 1031.1 17.2
2016-Aug-17 19:10N 45°53' W 134°29'1 1.0 1031.0 17.2
2016-Aug-17 18:10N 45°54' W 134°30'1 0.6 1030.6 17.1
2016-Aug-17 17:10N 45°54' W 134°29'1 0.3 1030.4 17.1
2016-Aug-17 15:10N 45°55' W 134°29'1 0.8 1030.1 17.2
2016-Aug-17 14:10N 45°55' W 134°28'0 0.5 1029.6 17.2
2016-Aug-17 13:10N 45°55' W 134°29'   1029.3 17.2
Track history (hours):
 
Tides and Currents Weather Stations Pressure Air Temp Water Temp Dewpoint Dewpoint Depression Visibility Wind Speed Wind Dir Waves Ship Positions

Drifting buoy 21539

Last reported at 2016-Aug-27 13:10 UTC. Time now 2016-Aug-27 15:13 UTC.
Position N 44°33' W 135°21'.

Barometer 1021.5 mb
Water temperature 17.5 ° C

Date/timePositionNaut miles runAvg speedWind from/ knotsBaromVisibWave heightAir tempDewpointWater temp
2016-Aug-27 13:10N 44°33' W 135°21'1 1.0 1021.5 17.5
2016-Aug-27 12:10N 44°34' W 135°20'2 2.2 1021.7 17.5
2016-Aug-27 11:10N 44°36' W 135°20'0 0.0 1022.0 17.5
2016-Aug-27 10:10N 44°36' W 135°20'2 0.4 1022.2 17.5
2016-Aug-27 06:10N 44°37' W 135°18'1 1.1 1022.7 17.5
2016-Aug-27 05:10N 44°36' W 135°19'1 1.4 1022.8 17.6
2016-Aug-27 04:10N 44°37' W 135°17'0 0.0 1022.5 17.6
2016-Aug-27 03:10N 44°37' W 135°17'0 0.4 1022.4 17.6
2016-Aug-27 02:10N 44°37' W 135°17'1 1.4 1022.6 17.5
2016-Aug-27 01:10N 44°38' W 135°16'2 1.8 1022.9 17.5
2016-Aug-27 00:10N 44°40' W 135°15'0 0.0 1023.2 17.4
2016-Aug-26 22:10N 44°40' W 135°15'0 0.3 1024.0 17.4
2016-Aug-26 21:10N 44°40' W 135°15'3 1.0 1024.1 17.3
2016-Aug-26 18:10N 44°42' W 135°13'2 2.1 1024.6 17.3
2016-Aug-26 17:10N 44°43' W 135°10'2 1.6 1024.2 17.3
2016-Aug-26 16:10N 44°45' W 135°11'0 0.1 1024.2 17.3
2016-Aug-26 15:10N 44°45' W 135°11'1 1.0 1024.3 17.3
2016-Aug-26 14:10N 44°46' W 135°10'1 1.0 1024.1 17.3
2016-Aug-26 13:10N 44°47' W 135°10'1 0.7 1024.5 17.3
2016-Aug-26 12:10N 44°47' W 135°11'4 3.5 1025.0 17.3
2016-Aug-26 11:10N 44°49' W 135°07'1 0.2 1025.3 17.3
2016-Aug-26 06:10N 44°50' W 135°05'1 1.0 1027.5 17.5
2016-Aug-26 05:10N 44°51' W 135°05'1 0.6 1027.6 17.5
2016-Aug-26 04:10N 44°51' W 135°05'2 1.9 1027.6 17.5
2016-Aug-26 03:10N 44°53' W 135°05'1 1.3 1027.9 17.5
2016-Aug-26 02:10N 44°54' W 135°05'0 0.2 1028.1 17.5
2016-Aug-26 01:10N 44°54' W 135°05'3 3.3 1028.3 17.5
2016-Aug-26 00:10N 44°57' W 135°02'0 0.0 1028.8 17.5
2016-Aug-25 22:10N 44°57' W 135°02'0 0.0 1030.0 17.5
2016-Aug-25 21:10N 44°57' W 135°02'1 0.8 1030.4 17.5
2016-Aug-25 20:10N 44°58' W 135°02'1 0.6 1030.8 17.5
2016-Aug-25 18:10N 44°59' W 135°01'0 0.4 1031.0 17.5
2016-Aug-25 17:10N 44°59' W 135°01'1 0.6 1031.1 17.5
2016-Aug-25 15:10N 44°60' W 135°00'0 0.2 1031.4 17.5
2016-Aug-25 14:10N 45°00' W 135°00'2 1.6 1031.2 17.5
2016-Aug-25 13:10N 45°02' W 134°60'0 0.0 1031.3 17.5
2016-Aug-25 12:10N 45°02' W 134°60'3 2.8 1031.3 17.6
2016-Aug-25 11:10N 45°04' W 134°58'0 0.0 1031.8 17.6
2016-Aug-25 07:10N 45°04' W 134°58'1 1.1 1032.4 17.7
2016-Aug-25 06:10N 45°05' W 134°58'1 0.5 1032.6 17.7
2016-Aug-25 05:10N 45°06' W 134°58'0 0.4 1032.6 17.7
2016-Aug-25 04:10N 45°06' W 134°58'0 0.2 1032.3 17.8
2016-Aug-25 03:10N 45°06' W 134°58'1 0.4 1032.4 17.8
2016-Aug-25 01:10N 45°06' W 134°57'1 0.6 1032.5 17.8
2016-Aug-25 00:10N 45°06' W 134°56'0 0.1 1032.8 17.8
2016-Aug-24 23:10N 45°06' W 134°56'3 1.4 1033.2 17.8
2016-Aug-24 21:10N 45°08' W 134°53'0 0.0 1033.4 17.8
2016-Aug-24 20:10N 45°08' W 134°53'2 2.2 1033.6 17.7
2016-Aug-24 19:10N 45°10' W 134°54'0 0.0 1033.7 17.7
2016-Aug-24 18:10N 45°10' W 134°54'0 0.5 1033.6 17.7
2016-Aug-24 17:10N 45°10' W 134°53'0 0.0 1033.3 17.7
2016-Aug-24 16:10N 45°10' W 134°54'0 0.4 1033.0 17.6
2016-Aug-24 15:10N 45°10' W 134°54'1 0.8 1032.7 17.6
2016-Aug-24 14:10N 45°10' W 134°53'0 0.4 1032.3 17.6
2016-Aug-24 13:10N 45°10' W 134°52'3 1.3 1032.0 17.6
2016-Aug-24 11:10N 45°13' W 134°51'0 0.0 1031.8 17.6
2016-Aug-24 09:10N 45°13' W 134°51'0 0.0 1032.1 17.7
2016-Aug-24 07:10N 45°13' W 134°51'0 0.2 1031.9 17.9
2016-Aug-24 05:10N 45°13' W 134°52'0 0.2 1031.4 18.0
2016-Aug-24 04:10N 45°13' W 134°52'0 0.2 1030.8 18.0
2016-Aug-24 03:10N 45°13' W 134°52'0 0.2 1030.5 18.0
2016-Aug-24 02:10N 45°13' W 134°52'1 0.6 1030.2 18.1
2016-Aug-24 01:10N 45°12' W 134°51'1 1.4 1030.0 18.1
2016-Aug-24 00:10N 45°13' W 134°49'0 0.0 1030.0 18.1
2016-Aug-23 23:10N 45°13' W 134°49'2 1.2 1030.0 18.0
2016-Aug-23 21:10N 45°14' W 134°47'0 0.0 1029.9 17.9
2016-Aug-23 19:10N 45°14' W 134°47'1 0.8 1029.7 17.7
2016-Aug-23 18:10N 45°15' W 134°47'0 0.4 1029.4 17.6
2016-Aug-23 17:10N 45°15' W 134°48'1 0.8 1029.0 17.5
2016-Aug-23 16:10N 45°15' W 134°48'0 0.4 1028.6 17.5
2016-Aug-23 15:10N 45°15' W 134°48'0 0.3 1028.1 17.5
2016-Aug-23 14:10N 45°15' W 134°48'0 0.4 1027.5 17.5
2016-Aug-23 13:10N 45°15' W 134°48'0 0.3 1026.9 17.5
2016-Aug-23 12:10N 45°15' W 134°47'1 0.5 1026.5 17.5
2016-Aug-23 11:10N 45°16' W 134°47'0 0.0 1026.5 17.5
2016-Aug-23 10:10N 45°16' W 134°47'0 0.2 1026.4 17.5
2016-Aug-23 07:10N 45°16' W 134°47'1 0.6 1026.4 17.5
2016-Aug-23 06:10N 45°16' W 134°47'0 0.0 1026.2 17.5
2016-Aug-23 05:10N 45°16' W 134°47'0 0.5 1025.8 17.5
2016-Aug-23 04:10N 45°16' W 134°47'1 0.5 1025.2 17.6
2016-Aug-23 03:10N 45°16' W 134°47'0 0.4 1024.8 17.6
2016-Aug-23 02:10N 45°16' W 134°47'1 0.4 1024.8 17.6
2016-Aug-23 00:10N 45°16' W 134°46'1 0.8 1024.7 17.5
2016-Aug-22 23:10N 45°16' W 134°45'0 0.1 1024.7 17.4
2016-Aug-22 21:10N 45°16' W 134°45'0 0.2 1024.7 17.3
2016-Aug-22 20:10N 45°16' W 134°45'0 0.5 1024.6 17.2
2016-Aug-22 19:10N 45°16' W 134°44'0 0.5 1024.2 17.2
2016-Aug-22 18:10N 45°16' W 134°45'0 0.0 1024.1 17.2
2016-Aug-22 17:10N 45°16' W 134°45'0 0.3 1023.7 17.2
2016-Aug-22 16:10N 45°15' W 134°44'0 0.3 1023.3 17.2
2016-Aug-22 15:10N 45°15' W 134°44'0 0.3 1023.0 17.2
2016-Aug-22 14:10N 45°15' W 134°44'1 1.0 1022.4 17.2
2016-Aug-22 13:10N 45°15' W 134°42'0 0.2 1022.0 17.2
2016-Aug-22 12:10N 45°15' W 134°43'1 1.3 1021.9 17.3
2016-Aug-22 11:10N 45°15' W 134°41'0 0.4 1021.8 17.3
2016-Aug-22 10:10N 45°16' W 134°40'0 0.0 1021.9 17.4
2016-Aug-22 06:10N 45°16' W 134°41'0 0.4 1021.5 17.5
2016-Aug-22 05:10N 45°16' W 134°40'0 0.2 1021.2 17.5
2016-Aug-22 04:10N 45°15' W 134°40'0 0.1 1020.9 17.6
2016-Aug-22 02:10N 45°15' W 134°40'0 0.3 1020.6 17.7
2016-Aug-22 01:10N 45°15' W 134°41'0 0.2 1020.6 17.6
2016-Aug-22 00:10N 45°15' W 134°41'0 0.4 1020.8 17.8
2016-Aug-21 23:10N 45°16' W 134°41'1 1.1 1021.2 17.8
2016-Aug-21 22:10N 45°17' W 134°40'0 0.0 1021.5 18.0
2016-Aug-21 21:10N 45°17' W 134°40'0 0.0 1021.6 17.6
2016-Aug-21 20:10N 45°17' W 134°40'1 0.7 1021.8 17.3
2016-Aug-21 18:10N 45°18' W 134°40'0 0.0 1021.8 17.2
2016-Aug-21 17:10N 45°18' W 134°40'1 0.8 1021.5 17.2
2016-Aug-21 16:10N 45°18' W 134°41'0 0.2 1021.3 17.2
2016-Aug-21 15:10N 45°18' W 134°41'0 0.4 1021.2 17.2
2016-Aug-21 14:10N 45°19' W 134°41'0 0.5 1021.0 17.2
2016-Aug-21 13:10N 45°19' W 134°41'1 1.0 1021.0 17.2
2016-Aug-21 12:10N 45°20' W 134°42'1 0.4 1021.2 17.2
2016-Aug-21 10:10N 45°20' W 134°42'0 0.1 1021.3 17.2
2016-Aug-21 06:10N 45°21' W 134°42'0 0.3 1022.3 17.2
2016-Aug-21 05:10N 45°21' W 134°42'1 1.0 1022.3 17.2
2016-Aug-21 04:10N 45°22' W 134°41'0 0.4 1022.3 17.2
2016-Aug-21 03:10N 45°22' W 134°41'0 0.1 1022.3 17.2
2016-Aug-21 02:10N 45°22' W 134°41'1 1.1 1022.4 17.2
2016-Aug-21 01:10N 45°23' W 134°40'1 0.8 1022.7 17.2
2016-Aug-21 00:10N 45°24' W 134°41'1 1.2 1023.0 17.2
2016-Aug-20 23:10N 45°25' W 134°41'0 0.0 1023.4 17.2
2016-Aug-20 22:10N 45°25' W 134°41'2 0.4 1023.8 17.2
2016-Aug-20 18:10N 45°27' W 134°42'1 0.7 1025.2 17.0
2016-Aug-20 17:10N 45°26' W 134°41'0 0.1 1025.2 16.9
2016-Aug-20 16:10N 45°27' W 134°41'1 0.6 1025.1 16.9
2016-Aug-20 15:10N 45°27' W 134°41'0 0.3 1024.9 16.9
2016-Aug-20 14:10N 45°27' W 134°41'1 1.0 1024.6 16.9
2016-Aug-20 13:10N 45°28' W 134°41'1 1.1 1024.5 16.9
2016-Aug-20 12:10N 45°29' W 134°41'0 0.0 1024.6 16.9
2016-Aug-20 10:10N 45°29' W 134°41'1 0.5 1025.3 16.9
2016-Aug-20 07:10N 45°30' W 134°39'1 1.2 1026.2 16.9
2016-Aug-20 06:10N 45°31' W 134°38'1 0.8 1026.5 16.8
2016-Aug-20 05:10N 45°31' W 134°39'0 0.3 1026.4 16.8
2016-Aug-20 04:10N 45°32' W 134°39'1 0.7 1025.9 16.8
2016-Aug-20 02:10N 45°33' W 134°40'0 0.3 1026.2 16.9
2016-Aug-20 01:10N 45°33' W 134°40'1 0.8 1026.7 16.9
2016-Aug-20 00:10N 45°34' W 134°39'1 0.8 1027.0 16.8
2016-Aug-19 23:10N 45°35' W 134°39'0 0.1 1027.4 16.8
2016-Aug-19 22:10N 45°35' W 134°39'1 0.3 1027.6 16.8
2016-Aug-19 20:10N 45°34' W 134°39'2 1.6 1027.8 16.8
2016-Aug-19 19:10N 45°36' W 134°38'2 0.6 1028.0 16.8
2016-Aug-19 16:10N 45°38' W 134°37'0 0.2 1028.3 16.8
2016-Aug-19 15:10N 45°38' W 134°37'1 0.9 1028.2 16.8
2016-Aug-19 14:10N 45°38' W 134°38'1 0.6 1028.0 16.8
2016-Aug-19 13:10N 45°39' W 134°37'1 1.0 1028.0 16.8
2016-Aug-19 12:10N 45°40' W 134°38'2 1.0 1028.2 16.8
2016-Aug-19 10:10N 45°41' W 134°37'0 0.1 1028.5 16.8
2016-Aug-19 07:10N 45°41' W 134°37'1 0.6 1029.4 16.9
2016-Aug-19 06:10N 45°41' W 134°36'0 0.1 1029.5 16.9
2016-Aug-19 05:10N 45°41' W 134°36'1 1.3 1029.5 16.9
2016-Aug-19 04:10N 45°42' W 134°35'0 0.0 1029.3 16.9
2016-Aug-19 03:10N 45°42' W 134°35'1 1.2 1029.4 17.0
2016-Aug-19 02:10N 45°44' W 134°34'0 0.1 1029.6 16.9
2016-Aug-19 01:10N 45°44' W 134°34'2 1.8 1029.8 16.9
2016-Aug-19 00:10N 45°45' W 134°33'0 0.0 1029.9 16.9
2016-Aug-18 23:10N 45°45' W 134°33'0 0.0 1030.3 17.0
2016-Aug-18 22:10N 45°45' W 134°33'1 1.1 1030.6 17.0
2016-Aug-18 21:10N 45°46' W 134°34'0 0.4 1031.0 17.0
2016-Aug-18 20:10N 45°46' W 134°33'0 0.0 1031.0 16.9
2016-Aug-18 19:10N 45°46' W 134°33'1 1.1 1031.1 16.9
2016-Aug-18 18:10N 45°48' W 134°34'0 0.2 1031.2 16.9
2016-Aug-18 17:10N 45°48' W 134°34'1 0.5 1031.4 16.9
2016-Aug-18 16:10N 45°47' W 134°33'0 0.4 1031.1 16.9
2016-Aug-18 15:10N 45°48' W 134°34'1 1.4 1031.1 16.9
2016-Aug-18 14:10N 45°49' W 134°33'1 0.7 1030.8 16.9
2016-Aug-18 13:10N 45°48' W 134°33'1 0.7 1030.7 17.0
2016-Aug-18 12:10N 45°49' W 134°33'2 2.2 1030.9 17.0
2016-Aug-18 11:10N 45°51' W 134°31'2 1.9 1031.0 17.0
2016-Aug-18 10:10N 45°49' W 134°31'2 1.0 1031.0 17.1
2016-Aug-18 08:10N 45°51' W 134°31'1 0.3 1031.3 17.2
2016-Aug-18 06:10N 45°51' W 134°32'1 0.8 1031.7 17.2
2016-Aug-18 05:10N 45°52' W 134°30'0 0.5 1031.8 17.2
2016-Aug-18 04:10N 45°52' W 134°30'1 0.9 1031.4 17.2
2016-Aug-18 03:10N 45°53' W 134°31'0 0.5 1031.2 17.3
2016-Aug-18 02:10N 45°53' W 134°31'0 0.3 1031.3 17.2
2016-Aug-18 01:10N 45°53' W 134°31'0 0.2 1031.2 17.3
2016-Aug-17 22:10N 45°53' W 134°32'2 1.7 1031.6 17.2
2016-Aug-17 21:10N 45°53' W 134°29'0 0.0 1031.3 17.2
2016-Aug-17 20:10N 45°53' W 134°29'0 0.0 1031.1 17.2
2016-Aug-17 19:10N 45°53' W 134°29'1 1.0 1031.0 17.2
2016-Aug-17 18:10N 45°54' W 134°30'1 0.6 1030.6 17.1
2016-Aug-17 17:10N 45°54' W 134°29'1 0.3 1030.4 17.1
2016-Aug-17 15:10N 45°55' W 134°29'1 0.8 1030.1 17.2
2016-Aug-17 14:10N 45°55' W 134°28'0 0.5 1029.6 17.2
2016-Aug-17 13:10N 45°55' W 134°29'   1029.3 17.2

Dump ship's entire track history